Time;durP1;ratioP1;P1;durP2;ratioP2;P2;SDS_P1;SDS_P2;PMS_P1;PMS_P2;Temp;Humidity;BMP_temperature;BMP_pressure;BME280_temperature;BME280_humidity;BME280_pressure;Samples;Min_cycle;Max_cycle;Signal;HPM_P1;HPM_P2
2022/05/07 00:00:38;;;;;;;;;;;;;;;22.21;37.40;101332.22;2066900;28;974;-59
2022/05/07 00:01:38;;;;;;;;;;;;;;;22.19;37.69;101337.66;2066838;28;866;-59
2022/05/07 00:02:38;;;;;;;;;;;;;;;22.18;37.51;101340.41;2066926;28;804;-59
2022/05/07 00:03:39;;;;;;;;;;;;;;;22.18;37.58;101335.00;2066827;28;753;-59
2022/05/07 00:04:39;;;;;;;;;;;;;;;22.18;37.56;101338.59;2066857;28;831;-59
2022/05/07 00:05:39;;;;;;;;;;;;;;;22.17;38.23;101333.25;2066816;28;899;-59
2022/05/07 00:06:39;;;;;;;;;;;;;;;22.17;38.03;101341.34;2066770;28;1980;-59
2022/05/07 00:07:39;;;;;;;;;;;;;;;22.16;37.60;101335.03;2066804;28;796;-59
2022/05/07 00:08:39;;;;;;;;;;;;;;;22.16;37.83;101329.66;2066764;28;1049;-59
2022/05/07 00:09:40;;;;;;;;;;;;;;;22.17;37.90;101330.56;2066827;28;1010;-59
2022/05/07 00:10:42;;;;;;;;;;;;;;;22.15;38.21;101333.28;2066820;28;926;-59
2022/05/07 00:11:42;;;;;;;;;;;;;;;22.14;37.67;101331.50;2066767;28;766;-59
2022/05/07 00:12:42;;;;;;;;;;;;;;;22.14;38.47;101327.94;2066775;28;769;-59
2022/05/07 00:13:42;;;;;;;;;;;;;;;22.14;37.87;101327.94;2066754;28;1005;-59
2022/05/07 00:14:43;;;;;;;;;;;;;;;22.12;37.81;101336.06;2066752;28;778;-59
2022/05/07 00:18:01;;;;;;;;;;;;;;;22.14;38.29;101330.66;2066768;28;787;-59
2022/05/07 00:18:22;;;;;;;;;;;;;;;22.12;37.74;101327.97;2066694;28;1001;-59
2022/05/07 00:19:22;;;;;;;;;;;;;;;22.12;38.35;101332.50;2066758;28;982;-59
2022/05/07 00:20:22;;;;;;;;;;;;;;;22.12;37.98;101329.81;2066722;28;825;-59
2022/05/07 00:21:22;;;;;;;;;;;;;;;22.11;38.66;101328.91;2066710;28;1154;-59
2022/05/07 00:22:23;;;;;;;;;;;;;;;22.11;38.58;101325.34;2074163;28;851;-59
2022/05/07 00:23:23;;;;;;;;;;;;;;;22.09;37.89;101330.78;2074215;28;827;-59
2022/05/07 00:24:23;;;;;;;;;;;;;;;22.10;38.40;101332.53;2066777;28;899;-59
2022/05/07 00:25:27;;;;;;;;;;;;;;;22.09;38.01;101335.31;2074133;28;831;-59
2022/05/07 00:26:27;;;;;;;;;;;;;;;22.09;38.48;101332.59;2073734;28;1163;-59
2022/05/07 00:27:27;;;;;;;;;;;;;;;22.09;38.20;101338.00;2066685;28;1914;-59
2022/05/07 00:28:27;;;;;;;;;;;;;;;22.09;38.65;101335.31;2066678;28;853;-59
2022/05/07 00:29:27;;;;;;;;;;;;;;;22.08;38.01;101331.72;2066671;28;1014;-59
2022/05/07 00:30:27;;;;;;;;;;;;;;;22.06;38.41;101328.22;2066679;28;780;-59
2022/05/07 00:31:28;;;;;;;;;;;;;;;22.08;38.20;101333.53;2067202;28;998;-59
2022/05/07 00:32:28;;;;;;;;;;;;;;;22.07;38.14;101329.97;2069100;28;781;-59
2022/05/07 00:33:28;;;;;;;;;;;;;;;22.06;38.22;101333.59;2069007;28;860;-59
2022/05/07 00:34:28;;;;;;;;;;;;;;;22.05;38.32;101330.00;2068097;28;1049;-59
2022/05/07 00:35:28;;;;;;;;;;;;;;;22.05;38.52;101327.31;2066604;28;1002;-59
2022/05/07 00:36:28;;;;;;;;;;;;;;;22.04;38.18;101328.25;2066571;28;773;-59
2022/05/07 00:37:28;;;;;;;;;;;;;;;22.05;38.45;101331.84;2065720;28;1188;-59
2022/05/07 00:38:29;;;;;;;;;;;;;;;22.04;38.39;101330.94;2066622;28;1038;-59
2022/05/07 00:39:30;;;;;;;;;;;;;;;22.04;38.81;101325.53;2066674;28;853;-59
2022/05/07 00:40:30;;;;;;;;;;;;;;;22.04;38.11;101325.53;2066620;28;894;-59
2022/05/07 00:41:30;;;;;;;;;;;;;;;22.04;38.75;101321.97;2066629;28;792;-59
2022/05/07 00:42:31;;;;;;;;;;;;;;;22.03;38.25;101323.78;2066599;28;812;-59
2022/05/07 00:43:38;;;;;;;;;;;;;;;22.03;38.31;101328.31;2066586;28;896;-59
2022/05/07 00:44:38;;;;;;;;;;;;;;;22.03;38.37;101323.78;2066684;28;792;-59
2022/05/07 00:45:38;;;;;;;;;;;;;;;22.02;39.01;101316.63;2066695;28;710;-59
2022/05/07 00:46:38;;;;;;;;;;;;;;;22.02;38.81;101321.16;2066530;28;1949;-59
2022/05/07 00:47:39;;;;;;;;;;;;;;;22.01;38.50;101325.63;2066590;28;895;-59
2022/05/07 00:48:39;;;;;;;;;;;;;;;22.01;38.76;101322.06;2066617;28;960;-59
2022/05/07 00:49:40;;;;;;;;;;;;;;;22.01;38.76;101319.38;2066600;28;970;-59
2022/05/07 00:52:00;;;;;;;;;;;;;;;21.99;38.27;101318.53;2066815;28;594;-59
2022/05/07 00:53:00;;;;;;;;;;;;;;;22.00;38.26;101315.78;2066608;28;895;-59
2022/05/07 00:54:01;;;;;;;;;;;;;;;22.00;38.54;101318.47;2066593;28;933;-59
2022/05/07 00:55:02;;;;;;;;;;;;;;;22.00;38.82;101315.78;2066689;28;949;-59
2022/05/07 00:56:02;;;;;;;;;;;;;;;21.99;38.47;101322.09;2066615;28;906;-59
2022/05/07 00:57:02;;;;;;;;;;;;;;;21.99;38.84;101313.16;2066564;28;890;-59
2022/05/07 00:58:02;;;;;;;;;;;;;;;22.00;39.20;101317.63;2066582;28;831;-59
2022/05/07 00:59:03;;;;;;;;;;;;;;;21.99;38.34;101319.41;2066578;28;1018;-59
2022/05/07 01:00:04;;;;;;;;;;;;;;;21.99;39.26;101311.31;2066553;28;981;-59
2022/05/07 01:01:05;;;;;;;;;;;;;;;21.99;38.97;101319.41;2066582;28;863;-59
2022/05/07 01:02:05;;;;;;;;;;;;;;;21.99;38.61;101313.16;2066586;28;898;-59
2022/05/07 01:03:05;;;;;;;;;;;;;;;21.97;39.05;101309.63;2066525;28;1080;-59
2022/05/07 01:04:05;;;;;;;;;;;;;;;21.97;38.95;101302.38;2066576;28;832;-59
2022/05/07 01:05:06;;;;;;;;;;;;;;;21.98;38.90;101308.69;2066540;28;748;-59
2022/05/07 01:06:06;;;;;;;;;;;;;;;21.97;39.68;101309.63;2066613;28;867;-59
2022/05/07 01:07:06;;;;;;;;;;;;;;;21.97;39.20;101307.78;2066449;28;1902;-59
2022/05/07 01:08:11;;;;;;;;;;;;;;;21.96;38.96;101306.03;2066490;28;1033;-59
2022/05/07 01:09:11;;;;;;;;;;;;;;;21.97;38.69;101304.22;2066514;28;827;-59
2022/05/07 01:10:12;;;;;;;;;;;;;;;21.96;38.71;101306.03;2066541;28;1009;-59
2022/05/07 01:11:12;;;;;;;;;;;;;;;21.97;39.48;101302.38;2066530;28;1009;-59
2022/05/07 01:12:12;;;;;;;;;;;;;;;21.96;39.55;101300.63;2066738;28;969;-59
2022/05/07 01:13:12;;;;;;;;;;;;;;;21.97;38.92;101301.53;2066793;28;978;-59
2022/05/07 01:14:13;;;;;;;;;;;;;;;21.97;38.92;101305.09;2069017;28;1145;-59
2022/05/07 01:15:13;;;;;;;;;;;;;;;21.96;39.26;101302.44;2067731;28;993;-60
2022/05/07 01:16:13;;;;;;;;;;;;;;;21.96;38.75;101294.38;2066506;28;824;-59
2022/05/07 01:17:13;;;;;;;;;;;;;;;21.96;38.90;101289.84;2066490;28;823;-59
2022/05/07 01:18:15;;;;;;;;;;;;;;;21.95;38.98;101298.84;2066653;28;844;-59
2022/05/07 01:19:15;;;;;;;;;;;;;;;21.95;39.15;101293.47;2066634;28;792;-59
2022/05/07 01:20:15;;;;;;;;;;;;;;;21.95;38.99;101296.16;2066458;28;690;-59
2022/05/07 01:21:17;;;;;;;;;;;;;;;21.96;39.47;101288.97;2066623;28;714;-59
2022/05/07 01:22:18;;;;;;;;;;;;;;;21.96;38.99;101294.38;2066486;28;796;-59
2022/05/07 01:23:18;;;;;;;;;;;;;;;21.94;38.92;101291.69;2066536;28;1044;-59
2022/05/07 01:24:18;;;;;;;;;;;;;;;21.94;38.84;101291.69;2066502;28;1032;-59
2022/05/07 01:25:19;;;;;;;;;;;;;;;21.94;39.22;101289.00;2066441;28;617;-59
2022/05/07 01:26:21;;;;;;;;;;;;;;;21.94;39.05;101289.00;2066227;28;1261;-59
2022/05/07 01:27:22;;;;;;;;;;;;;;;21.93;39.15;101292.63;2066483;28;1938;-59
2022/05/07 01:28:22;;;;;;;;;;;;;;;21.93;39.91;101289.94;2066504;28;910;-59
2022/05/07 01:29:24;;;;;;;;;;;;;;;21.91;39.07;101287.31;2066435;28;860;-59
2022/05/07 01:30:25;;;;;;;;;;;;;;;21.91;39.82;101290.00;2066474;28;1038;-59
2022/05/07 01:31:28;;;;;;;;;;;;;;;21.92;39.27;101280.06;2066458;28;808;-59
2022/05/07 01:32:28;;;;;;;;;;;;;;;21.92;39.17;101289.06;2066580;28;777;-59
2022/05/07 01:33:29;;;;;;;;;;;;;;;21.93;39.29;101284.53;2066430;28;902;-59
2022/05/07 01:34:29;;;;;;;;;;;;;;;21.92;40.00;101286.38;2066458;28;784;-59
2022/05/07 01:35:29;;;;;;;;;;;;;;;21.93;39.77;101281.84;2066432;28;926;-59
2022/05/07 01:36:29;;;;;;;;;;;;;;;21.92;38.96;101278.28;2066426;28;858;-59
2022/05/07 01:37:29;;;;;;;;;;;;;;;21.92;39.35;101283.66;2066392;28;934;-60
2022/05/07 01:38:30;;;;;;;;;;;;;;;21.92;39.68;101280.06;2066400;28;1011;-59
2022/05/07 01:39:30;;;;;;;;;;;;;;;21.92;39.38;101280.06;2066448;28;843;-59
2022/05/07 01:40:30;;;;;;;;;;;;;;;21.90;39.88;101280.13;2066417;28;1029;-59
2022/05/07 01:41:31;;;;;;;;;;;;;;;21.91;40.19;101275.59;2066506;28;683;-59
2022/05/07 01:42:31;;;;;;;;;;;;;;;21.92;39.03;101277.38;2066406;28;792;-59
2022/05/07 01:43:34;;;;;;;;;;;;;;;21.91;39.25;101276.50;2066414;28;915;-59
2022/05/07 01:44:34;;;;;;;;;;;;;;;21.90;40.11;101288.22;2066411;28;918;-59
2022/05/07 01:45:34;;;;;;;;;;;;;;;21.90;39.46;101273.84;2066365;28;974;-59
2022/05/07 01:48:12;;;;;;;;;;;;;;;21.89;39.32;101278.38;2066400;28;725;-59
2022/05/07 01:49:12;;;;;;;;;;;;;;;21.90;39.40;101271.16;2067687;28;870;-58
2022/05/07 01:50:12;;;;;;;;;;;;;;;21.91;39.54;101281.00;2067839;28;781;-59
2022/05/07 01:51:12;;;;;;;;;;;;;;;21.90;39.39;101273.84;2067861;28;911;-59
2022/05/07 01:52:13;;;;;;;;;;;;;;;21.90;39.37;101271.16;2067862;28;990;-59
2022/05/07 01:53:14;;;;;;;;;;;;;;;21.89;40.24;101267.59;2067857;28;1041;-58
2022/05/07 01:54:14;;;;;;;;;;;;;;;21.89;39.62;101267.59;2067852;28;863;-59
2022/05/07 01:55:14;;;;;;;;;;;;;;;21.89;39.59;101270.28;2068647;28;899;-59
2022/05/07 01:56:15;;;;;;;;;;;;;;;21.89;39.38;101267.59;2067867;28;788;-59
2022/05/07 01:57:15;;;;;;;;;;;;;;;21.88;39.50;101271.22;2067796;28;868;-59
2022/05/07 01:58:16;;;;;;;;;;;;;;;21.89;40.30;101266.69;2067782;28;1002;-59
2022/05/07 01:59:16;;;;;;;;;;;;;;;21.89;39.67;101255.91;2067837;28;883;-59
2022/05/07 02:00:16;;;;;;;;;;;;;;;21.88;39.76;101259.53;2067786;28;899;-59
2022/05/07 02:01:17;;;;;;;;;;;;;;;21.89;39.84;101255.91;2067891;28;1034;-59
2022/05/07 02:02:17;;;;;;;;;;;;;;;21.88;40.20;101260.44;2067811;28;856;-59
2022/05/07 02:03:17;;;;;;;;;;;;;;;21.88;39.69;101249.63;2067771;28;855;-59
2022/05/07 02:04:17;;;;;;;;;;;;;;;21.88;39.68;101251.44;2067781;28;827;-59
2022/05/07 02:05:17;;;;;;;;;;;;;;;21.89;40.30;101258.59;2067899;28;987;-59
2022/05/07 02:06:18;;;;;;;;;;;;;;;21.89;39.50;101261.28;2067755;28;785;-59
2022/05/07 02:07:18;;;;;;;;;;;;;;;21.88;40.21;101254.13;2067676;28;1894;-59
2022/05/07 02:08:18;;;;;;;;;;;;;;;21.88;39.73;101254.13;2067731;28;1041;-59
2022/05/07 02:09:18;;;;;;;;;;;;;;;21.87;40.35;101255.97;2067843;28;685;-59
2022/05/07 02:10:19;;;;;;;;;;;;;;;21.86;39.99;101256.91;2067859;28;820;-59
2022/05/07 02:11:19;;;;;;;;;;;;;;;21.85;39.68;101263.22;2067749;28;792;-59
2022/05/07 02:12:19;;;;;;;;;;;;;;;21.85;40.19;101260.53;2067823;28;788;-59
2022/05/07 02:13:19;;;;;;;;;;;;;;;21.85;39.75;101265.91;2067709;28;796;-59
2022/05/07 02:14:19;;;;;;;;;;;;;;;21.86;39.69;101259.59;2067720;28;789;-59
2022/05/07 02:15:20;;;;;;;;;;;;;;;21.86;40.21;101253.28;2067829;28;797;-59
2022/05/07 02:16:20;;;;;;;;;;;;;;;21.85;40.06;101263.22;2067647;28;785;-59
2022/05/07 02:17:20;;;;;;;;;;;;;;;21.85;39.89;101254.22;2067645;28;840;-59
2022/05/07 02:18:20;;;;;;;;;;;;;;;21.86;40.33;101256.00;2067751;28;852;-59
2022/05/07 02:19:20;;;;;;;;;;;;;;;21.85;40.61;101255.13;2067648;28;860;-59
2022/05/07 02:20:20;;;;;;;;;;;;;;;21.86;39.88;101250.59;2067784;28;982;-59
2022/05/07 02:21:21;;;;;;;;;;;;;;;21.85;40.35;101254.22;2067637;28;742;-59
2022/05/07 02:22:21;;;;;;;;;;;;;;;21.85;39.98;101249.72;2067628;28;891;-59
2022/05/07 02:23:21;;;;;;;;;;;;;;;21.86;39.66;101250.59;2067590;28;1045;-59
2022/05/07 02:24:21;;;;;;;;;;;;;;;21.86;39.79;101250.59;2067638;28;831;-59
2022/05/07 02:25:22;;;;;;;;;;;;;;;21.85;40.17;101248.84;2067799;28;828;-59
2022/05/07 02:26:22;;;;;;;;;;;;;;;21.85;40.82;101246.13;2067460;28;1060;-59
2022/05/07 02:27:23;;;;;;;;;;;;;;;21.85;40.21;101251.53;2067564;28;1976;-59
2022/05/07 02:28:23;;;;;;;;;;;;;;;21.84;40.37;101250.66;2075025;28;963;-59
2022/05/07 02:29:23;;;;;;;;;;;;;;;21.84;40.77;101247.97;2076238;28;989;-59
2022/05/07 02:30:23;;;;;;;;;;;;;;;21.85;40.82;101249.72;2070096;28;850;-59
2022/05/07 02:31:23;;;;;;;;;;;;;;;21.86;40.65;101237.13;2068880;28;1018;-59
2022/05/07 02:32:23;;;;;;;;;;;;;;;21.85;40.01;101243.44;2067575;28;864;-59
2022/05/07 02:33:24;;;;;;;;;;;;;;;21.85;40.71;101241.66;2067532;28;911;-59
2022/05/07 02:34:24;;;;;;;;;;;;;;;21.85;40.65;101236.25;2067526;28;934;-59
2022/05/07 02:35:25;;;;;;;;;;;;;;;21.85;40.72;101241.66;2067548;28;784;-59
2022/05/07 02:36:25;;;;;;;;;;;;;;;21.86;40.19;101239.81;2067558;28;879;-59
2022/05/07 02:37:25;;;;;;;;;;;;;;;21.85;40.86;101238.94;2067487;28;1274;-59
2022/05/07 02:38:25;;;;;;;;;;;;;;;21.84;40.28;101241.69;2067473;28;1038;-59
2022/05/07 02:39:25;;;;;;;;;;;;;;;21.85;40.87;101238.03;2067496;28;931;-59
2022/05/07 02:40:26;;;;;;;;;;;;;;;21.85;40.18;101240.75;2067513;28;815;-59
2022/05/07 02:42:45;;;;;;;;;;;;;;;21.84;40.37;101245.28;2067544;28;606;-59
2022/05/07 02:43:45;;;;;;;;;;;;;;;21.84;40.69;101238.97;2067624;28;788;-59
2022/05/07 02:44:45;;;;;;;;;;;;;;;21.84;40.59;101241.69;2067625;28;832;-59
2022/05/07 02:45:46;;;;;;;;;;;;;;;21.83;40.14;101238.13;2067498;28;1048;-59
2022/05/07 02:46:46;;;;;;;;;;;;;;;21.84;40.51;101242.56;2067347;28;1964;-59
2022/05/07 02:47:46;;;;;;;;;;;;;;;21.84;40.21;101239.88;2067420;28;1053;-59
2022/05/07 02:48:46;;;;;;;;;;;;;;;21.85;40.50;101243.44;2067428;28;786;-59
2022/05/07 02:49:46;;;;;;;;;;;;;;;21.84;40.21;101242.56;2067494;28;754;-59
2022/05/07 02:50:47;;;;;;;;;;;;;;;21.85;40.53;101243.44;2067432;28;876;-59
2022/05/07 02:51:47;;;;;;;;;;;;;;;21.86;40.31;101242.50;2067381;28;804;-59
2022/05/07 02:52:47;;;;;;;;;;;;;;;21.86;40.89;101237.13;2067451;28;847;-59
2022/05/07 02:53:47;;;;;;;;;;;;;;;21.85;40.05;101240.75;2067384;28;974;-59
2022/05/07 02:54:47;;;;;;;;;;;;;;;21.84;40.19;101233.59;2067457;28;789;-59
2022/05/07 02:55:47;;;;;;;;;;;;;;;21.85;40.56;101235.34;2067350;28;848;-59
2022/05/07 02:56:47;;;;;;;;;;;;;;;21.84;40.30;101239.88;2067392;28;970;-59
2022/05/07 02:57:48;;;;;;;;;;;;;;;21.83;40.55;101238.13;2067413;28;784;-59
2022/05/07 02:58:48;;;;;;;;;;;;;;;21.82;40.43;101235.44;2067418;28;858;-59
2022/05/07 02:59:48;;;;;;;;;;;;;;;21.82;40.12;101233.66;2067008;28;828;-59
2022/05/07 03:00:49;;;;;;;;;;;;;;;21.83;40.56;101237.22;2066635;28;851;-59
2022/05/07 03:01:50;;;;;;;;;;;;;;;21.84;40.70;101236.28;2067366;28;839;-59
2022/05/07 03:02:50;;;;;;;;;;;;;;;21.84;41.19;101230.88;2067361;28;1005;-59
2022/05/07 03:03:50;;;;;;;;;;;;;;;21.84;40.91;101238.97;2067286;28;982;-59
2022/05/07 03:04:51;;;;;;;;;;;;;;;21.84;40.32;101236.28;2067335;28;780;-59
2022/05/07 03:05:52;;;;;;;;;;;;;;;21.84;40.80;101230.88;2067279;28;1453;-59
2022/05/07 03:06:52;;;;;;;;;;;;;;;21.83;41.09;101229.13;2067429;28;1894;-59
2022/05/07 03:07:54;;;;;;;;;;;;;;;21.84;40.37;101233.59;2068848;28;978;-60
2022/05/07 03:08:54;;;;;;;;;;;;;;;21.84;41.20;101231.78;2067354;28;817;-59
2022/05/07 03:09:54;;;;;;;;;;;;;;;21.82;40.74;101233.66;2067301;28;946;-59
2022/05/07 03:10:55;;;;;;;;;;;;;;;21.83;40.51;101229.13;2067407;28;958;-59
2022/05/07 03:11:55;;;;;;;;;;;;;;;21.83;40.72;101235.41;2067222;28;851;-59
2022/05/07 03:12:55;;;;;;;;;;;;;;;21.84;41.23;101230.88;2067260;28;816;-59
2022/05/07 03:13:55;;;;;;;;;;;;;;;21.84;40.65;101236.28;2067285;28;900;-59
2022/05/07 03:14:55;;;;;;;;;;;;;;;21.83;40.79;101230.03;2067269;28;847;-59
2022/05/07 03:15:55;;;;;;;;;;;;;;;21.84;40.70;101234.50;2067228;28;907;-59
2022/05/07 03:16:56;;;;;;;;;;;;;;;21.83;40.51;101237.22;2067191;28;1003;-59
2022/05/07 03:17:56;;;;;;;;;;;;;;;21.82;40.69;101228.25;2067197;28;1002;-59
2022/05/07 03:18:56;;;;;;;;;;;;;;;21.82;41.06;101230.06;2067205;28;797;-59
2022/05/07 03:19:56;;;;;;;;;;;;;;;21.82;40.62;101232.75;2067268;28;812;-59
2022/05/07 03:20:57;;;;;;;;;;;;;;;21.81;40.53;101228.28;2067171;28;789;-59
2022/05/07 03:21:57;;;;;;;;;;;;;;;21.82;40.80;101238.16;2067188;28;772;-59
2022/05/07 03:22:58;;;;;;;;;;;;;;;21.82;40.63;101235.44;2067173;28;784;-59
2022/05/07 03:23:58;;;;;;;;;;;;;;;21.82;40.43;101232.75;2067167;28;914;-59
2022/05/07 03:24:58;;;;;;;;;;;;;;;21.82;41.41;101236.34;2067187;28;732;-59
2022/05/07 03:25:58;;;;;;;;;;;;;;;21.82;40.72;101232.75;2067098;28;938;-59
2022/05/07 03:27:00;;;;;;;;;;;;;;;21.81;40.58;101231.88;2066890;28;1987;-59
2022/05/07 03:28:00;;;;;;;;;;;;;;;21.82;41.09;101233.66;2067151;28;827;-59
2022/05/07 03:29:00;;;;;;;;;;;;;;;21.82;40.60;101236.34;2067120;28;1037;-59
2022/05/07 03:30:00;;;;;;;;;;;;;;;21.81;40.94;101237.28;2067106;28;800;-59
2022/05/07 03:31:01;;;;;;;;;;;;;;;21.82;40.65;101232.75;2067111;28;878;-59
2022/05/07 03:32:01;;;;;;;;;;;;;;;21.80;40.95;101230.13;2067349;28;638;-59
2022/05/07 03:33:01;;;;;;;;;;;;;;;21.81;40.94;101233.69;2067067;28;982;-59
2022/05/07 03:34:02;;;;;;;;;;;;;;;21.82;40.62;101238.16;2067057;28;994;-59
2022/05/07 03:35:02;;;;;;;;;;;;;;;21.81;41.05;101236.38;2067108;28;765;-59
2022/05/07 03:36:02;;;;;;;;;;;;;;;21.80;41.75;101232.81;2066961;28;1329;-59
2022/05/07 03:37:02;;;;;;;;;;;;;;;21.81;40.87;101228.28;2067181;28;753;-59
2022/05/07 03:38:02;;;;;;;;;;;;;;;21.81;41.04;101234.59;2074479;28;965;-59
2022/05/07 03:39:03;;;;;;;;;;;;;;;21.82;40.88;101236.34;2074572;28;942;-59
2022/05/07 03:40:03;;;;;;;;;;;;;;;21.82;40.87;101224.66;2067097;28;898;-59
2022/05/07 03:41:04;;;;;;;;;;;;;;;21.81;40.99;101231.00;2067024;28;997;-59
2022/05/07 03:42:04;;;;;;;;;;;;;;;21.81;40.76;101231.00;2067070;28;859;-59
2022/05/07 03:43:05;;;;;;;;;;;;;;;21.81;40.79;101237.28;2067016;28;1033;-59
2022/05/07 03:44:05;;;;;;;;;;;;;;;21.81;40.93;101231.00;2067112;28;834;-59
2022/05/07 03:45:06;;;;;;;;;;;;;;;21.80;41.74;101231.91;2067536;28;855;-59
2022/05/07 03:46:06;;;;;;;;;;;;;;;21.79;41.34;101231.06;2067063;28;882;-59
2022/05/07 03:47:06;;;;;;;;;;;;;;;21.81;40.96;101228.28;2066965;28;1975;-59
2022/05/07 03:48:07;;;;;;;;;;;;;;;21.81;40.99;101231.00;2067059;28;1015;-59
2022/05/07 03:49:07;;;;;;;;;;;;;;;21.81;40.83;101222.91;2066991;28;1036;-59
2022/05/07 03:50:07;;;;;;;;;;;;;;;21.81;41.30;101225.59;2066941;28;585;-59
2022/05/07 03:51:08;;;;;;;;;;;;;;;21.80;41.39;101224.72;2066964;28;1267;-59
2022/05/07 03:53:30;;;;;;;;;;;;;;;21.80;41.46;101218.44;2067129;28;677;-59
2022/05/07 03:54:30;;;;;;;;;;;;;;;21.79;40.95;101217.56;2067089;28;871;-59
2022/05/07 03:55:30;;;;;;;;;;;;;;;21.78;41.62;101215.81;2067015;28;777;-60
2022/05/07 03:56:30;;;;;;;;;;;;;;;21.79;41.10;101222.97;2066915;28;848;-59
2022/05/07 03:57:30;;;;;;;;;;;;;;;21.79;41.54;101216.66;2066885;28;1033;-59
2022/05/07 03:58:30;;;;;;;;;;;;;;;21.79;41.67;101220.28;2066851;28;653;-59
2022/05/07 03:59:31;;;;;;;;;;;;;;;21.79;41.36;101222.06;2066858;28;860;-59
2022/05/07 04:00:31;;;;;;;;;;;;;;;21.80;40.88;101226.53;2066841;28;1053;-59
2022/05/07 04:01:31;;;;;;;;;;;;;;;22.50;40.17;101225.09;2066911;28;780;-59
2022/05/07 04:02:32;;;;;;;;;;;;;;;23.25;39.08;101228.72;2066823;28;859;-59
2022/05/07 04:03:32;;;;;;;;;;;;;;;23.80;37.11;101225.59;2066871;28;832;-59
2022/05/07 04:04:33;;;;;;;;;;;;;;;24.19;36.71;101218.63;2066834;28;887;-58
2022/05/07 04:05:33;;;;;;;;;;;;;;;24.47;36.19;101219.25;2066750;28;978;-58
2022/05/07 04:06:33;;;;;;;;;;;;;;;24.68;35.65;101212.88;2066893;28;813;-58
2022/05/07 04:07:33;;;;;;;;;;;;;;;24.99;34.91;101210.63;2066742;28;1894;-58
2022/05/07 04:08:33;;;;;;;;;;;;;;;25.22;35.14;101212.25;2066816;28;1053;-59
2022/05/07 04:09:35;;;;;;;;;;;;;;;25.40;34.32;101206.88;2066863;28;827;-58
2022/05/07 04:10:35;;;;;;;;;;;;;;;25.64;34.21;101199.41;2066808;28;871;-58
2022/05/07 04:11:35;;;;;;;;;;;;;;;25.85;34.21;101211.06;2074058;28;1030;-59
2022/05/07 04:12:35;;;;;;;;;;;;;;;25.99;32.99;101212.16;2074370;28;776;-59
2022/05/07 04:13:36;;;;;;;;;;;;;;;26.05;32.93;101206.44;2066861;28;1010;-59
2022/05/07 04:14:36;;;;;;;;;;;;;;;26.26;33.19;101207.19;2066787;28;1003;-58
2022/05/07 04:15:37;;;;;;;;;;;;;;;26.36;32.25;101202.16;2066798;28;1053;-58
2022/05/07 04:16:37;;;;;;;;;;;;;;;26.48;31.98;101209.69;2066825;28;814;-59
2022/05/07 04:17:37;;;;;;;;;;;;;;;26.67;32.61;101207.81;2066750;28;859;-59
2022/05/07 04:18:37;;;;;;;;;;;;;;;26.78;31.51;101205.41;2066763;28;997;-59
2022/05/07 04:19:37;;;;;;;;;;;;;;;26.98;31.56;101206.16;2066756;28;836;-58
2022/05/07 04:20:38;;;;;;;;;;;;;;;27.07;31.24;101200.22;2066777;28;796;-59
2022/05/07 04:21:38;;;;;;;;;;;;;;;27.17;30.88;101206.91;2066824;28;795;-59
2022/05/07 04:22:39;;;;;;;;;;;;;;;27.28;30.90;101203.56;2066706;28;1041;-59
2022/05/07 04:23:40;;;;;;;;;;;;;;;27.33;30.78;101201.47;2066757;28;827;-59
2022/05/07 04:24:40;;;;;;;;;;;;;;;27.49;30.76;101204.22;2066708;28;756;-59
2022/05/07 04:25:41;;;;;;;;;;;;;;;27.61;30.13;101202.66;2067478;28;1052;-59
2022/05/07 04:26:42;;;;;;;;;;;;;;;27.64;30.51;101202.47;2066612;28;1263;-59
2022/05/07 04:27:42;;;;;;;;;;;;;;;27.67;29.85;101209.56;2066597;28;1977;-59
2022/05/07 04:28:42;;;;;;;;;;;;;;;27.73;30.10;101208.31;2066743;28;848;-59
2022/05/07 04:29:42;;;;;;;;;;;;;;;27.86;29.47;101203.91;2066699;28;776;-59
2022/05/07 04:30:42;;;;;;;;;;;;;;;27.95;29.85;101213.41;2066664;28;990;-59
2022/05/07 04:31:44;;;;;;;;;;;;;;;27.99;29.68;101211.38;2066679;28;1048;-59
2022/05/07 04:32:44;;;;;;;;;;;;;;;28.13;29.24;101199.66;2066727;28;839;-59
2022/05/07 04:33:44;;;;;;;;;;;;;;;28.18;29.08;101209.34;2066844;28;787;-59
2022/05/07 04:34:45;;;;;;;;;;;;;;;28.25;29.00;101205.28;2066820;28;839;-59
2022/05/07 04:35:48;;;;;;;;;;;;;;;28.30;29.29;101206.81;2066630;28;1041;-59
2022/05/07 04:36:48;;;;;;;;;;;;;;;28.35;29.22;101202.84;2066707;28;800;-59
2022/05/07 04:37:48;;;;;;;;;;;;;;;28.29;28.72;101205.94;2066574;28;1177;-59
2022/05/07 04:38:49;;;;;;;;;;;;;;;28.36;29.25;101207.34;2066663;28;990;-59
2022/05/07 04:39:49;;;;;;;;;;;;;;;28.37;29.02;101214.53;2066679;28;815;-59
2022/05/07 04:40:49;;;;;;;;;;;;;;;28.48;28.62;101208.41;2066652;28;768;-59
2022/05/07 04:41:49;;;;;;;;;;;;;;;28.49;28.76;101207.44;2066630;28;1001;-59
2022/05/07 04:42:50;;;;;;;;;;;;;;;28.46;29.05;101207.63;2066663;28;935;-59
2022/05/07 04:43:50;;;;;;;;;;;;;;;28.47;28.71;101212.13;2066622;28;844;-60
2022/05/07 04:44:50;;;;;;;;;;;;;;;28.60;29.08;101201.31;2066606;28;807;-59
2022/05/07 04:45:50;;;;;;;;;;;;;;;28.63;28.58;101205.72;2066662;28;1068;-59
2022/05/07 04:46:50;;;;;;;;;;;;;;;28.56;28.41;101210.66;2066552;28;1890;-59
2022/05/07 04:47:53;;;;;;;;;;;;;;;28.66;28.40;101203.66;2066579;28;1068;-59
2022/05/07 04:48:54;;;;;;;;;;;;;;;28.72;28.50;101206.97;2066613;28;780;-59
2022/05/07 04:49:54;;;;;;;;;;;;;;;28.78;28.34;101210.25;2066635;28;815;-59
2022/05/07 04:50:54;;;;;;;;;;;;;;;28.90;28.37;101211.31;2066595;28;895;-59
2022/05/07 04:51:54;;;;;;;;;;;;;;;28.91;28.16;101209.44;2066582;28;1203;-59
2022/05/07 04:52:54;;;;;;;;;;;;;;;28.89;28.11;101205.94;2066559;28;803;-59
2022/05/07 04:53:54;;;;;;;;;;;;;;;28.95;28.04;101208.28;2066592;28;907;-59
2022/05/07 04:54:54;;;;;;;;;;;;;;;28.98;28.39;101210.81;2066562;28;1049;-59
2022/05/07 04:55:55;;;;;;;;;;;;;;;29.04;28.28;101201.38;2066603;28;792;-59
2022/05/07 04:56:55;;;;;;;;;;;;;;;29.04;28.17;101202.25;2073993;28;955;-60
2022/05/07 04:57:55;;;;;;;;;;;;;;;29.07;28.33;101206.66;2074265;28;747;-59
2022/05/07 04:58:55;;;;;;;;;;;;;;;29.03;27.60;101213.28;2066723;28;819;-59
2022/05/07 04:59:55;;;;;;;;;;;;;;;29.10;27.67;101207.31;2066617;28;782;-59
2022/05/07 05:00:56;;;;;;;;;;;;;;;29.15;27.77;101198.81;2066578;28;898;-59
2022/05/07 05:01:56;;;;;;;;;;;;;;;29.13;27.91;101200.81;2066739;28;703;-59
2022/05/07 05:02:56;;;;;;;;;;;;;;;29.26;27.36;101204.47;2066577;28;970;-59
2022/05/07 05:03:56;;;;;;;;;;;;;;;29.16;27.69;101206.03;2066567;28;816;-59
2022/05/07 05:04:57;;;;;;;;;;;;;;;29.21;28.09;101194.84;2067084;28;884;-60
2022/05/07 05:05:57;;;;;;;;;;;;;;;29.25;27.97;101199.97;2067333;28;985;-59
2022/05/07 05:06:57;;;;;;;;;;;;;;;29.19;27.81;101205.84;2067818;28;1890;-59
2022/05/07 05:07:57;;;;;;;;;;;;;;;29.22;27.88;101205.63;2066617;28;835;-59
2022/05/07 05:08:58;;;;;;;;;;;;;;;29.18;27.71;101205.94;2066534;28;935;-59
2022/05/07 05:09:58;;;;;;;;;;;;;;;29.19;28.08;101204.97;2066506;28;813;-59
2022/05/07 05:10:58;;;;;;;;;;;;;;;29.24;27.42;101198.22;2066552;28;757;-59
2022/05/07 05:11:58;;;;;;;;;;;;;;;29.28;28.18;101204.38;2066469;28;852;-59
2022/05/07 05:12:58;;;;;;;;;;;;;;;29.40;27.68;101203.63;2066519;28;1006;-59
2022/05/07 05:13:58;;;;;;;;;;;;;;;29.40;27.61;101202.72;2066516;28;672;-59
2022/05/07 05:15:01;;;;;;;;;;;;;;;29.36;27.88;101198.41;2066509;28;915;-59
2022/05/07 05:16:01;;;;;;;;;;;;;;;29.37;27.64;101192.91;2066571;28;843;-59
2022/05/07 05:17:02;;;;;;;;;;;;;;;29.32;27.89;101185.94;2066569;28;1068;-59
2022/05/07 05:18:02;;;;;;;;;;;;;;;29.38;27.24;101194.66;2066479;28;1005;-59
2022/05/07 05:19:02;;;;;;;;;;;;;;;29.43;27.03;101192.50;2066598;28;784;-59
2022/05/07 05:20:04;;;;;;;;;;;;;;;29.37;27.67;101190.16;2066447;28;950;-59
2022/05/07 05:21:04;;;;;;;;;;;;;;;29.33;28.24;101191.31;2066563;28;989;-59
2022/05/07 05:22:04;;;;;;;;;;;;;;;29.38;27.43;101191.91;2066479;28;1002;-59
2022/05/07 05:23:06;;;;;;;;;;;;;;;29.33;27.92;101188.59;2066468;28;998;-59
2022/05/07 05:24:06;;;;;;;;;;;;;;;29.32;27.70;101191.41;2067894;28;785;-59
2022/05/07 05:25:06;;;;;;;;;;;;;;;29.47;27.67;101192.25;2068076;28;1010;-59